Time;durP1;ratioP1;P1;durP2;ratioP2;P2;SDS_P1;SDS_P2;PMS_P1;PMS_P2;Temp;Humidity;BMP_temperature;BMP_pressure;BME280_temperature;BME280_humidity;BME280_pressure;Samples;Min_cycle;Max_cycle;Signal;HPM_P1;HPM_P2
2023/11/22 00:02:06;;;;;;;18.30;11.60;;;;;;;-147.86;100.00;49126.20;105852;1256;60356;-46
2023/11/22 00:04:43;;;;;;;13.20;8.30;;;;;;;-147.86;100.00;49139.53;105853;1253;60695;-47
2023/11/22 00:07:12;;;;;;;21.00;11.20;;;;;;;-147.86;100.00;49144.24;105985;1256;72322;-45
2023/11/22 00:09:42;;;;;;;21.40;11.10;;;;;;;-147.86;100.00;49148.95;105675;1257;65505;-47
2023/11/22 00:12:09;;;;;;;18.00;11.90;;;;;;;-147.86;100.00;49130.51;105891;1253;72487;-45
2023/11/22 00:14:36;;;;;;;19.30;10.90;;;;;;;-147.86;100.00;49138.35;105878;1257;61154;-43
2023/11/22 00:17:03;;;;;;;20.00;10.80;;;;;;;-147.86;100.00;49114.43;105875;1252;60442;-46
2023/11/22 00:19:31;;;;;;;17.70;10.50;;;;;;;-147.86;100.00;49107.77;105898;1253;72881;-46
2023/11/22 00:21:58;;;;;;;19.50;10.30;;;;;;;-147.86;100.00;49086.20;105829;1256;65279;-43
2023/11/22 00:24:26;;;;;;;16.20;10.80;;;;;;;-147.86;100.00;49080.71;105906;1253;71658;-48
2023/11/22 00:26:53;;;;;;;21.60;11.20;;;;;;;-147.86;100.00;49068.55;105869;1253;60447;-48
2023/11/22 00:29:19;;;;;;;21.50;10.60;;;;;;;-147.86;100.00;49061.49;105915;1253;60489;-45
2023/11/22 00:31:46;;;;;;;16.80;10.70;;;;;;;-147.86;100.00;49034.82;105848;1253;73793;-46
2023/11/22 00:34:13;;;;;;;16.50;10.30;;;;;;;-147.86;100.00;49012.47;105691;1257;65433;-44
2023/11/22 00:36:43;;;;;;;14.70;10.00;;;;;;;-147.86;100.00;49030.51;105852;1253;72738;-44
2023/11/22 00:39:12;;;;;;;15.80;9.60;;;;;;;-147.86;100.00;49009.33;105835;1253;60359;-43
2023/11/22 00:41:40;;;;;;;14.30;9.20;;;;;;;-147.86;100.00;49015.61;105897;1253;60540;-46
2023/11/22 00:44:07;;;;;;;17.60;9.40;;;;;;;-147.86;100.00;48981.10;105862;1252;73832;-46
2023/11/22 00:46:34;;;;;;;18.20;9.50;;;;;;;-147.86;100.00;48960.71;105904;1257;65331;-44
2023/11/22 00:49:01;;;;;;;19.40;9.10;;;;;;;-147.86;100.00;48947.38;105851;1253;72649;-49
2023/11/22 00:51:29;;;;;;;14.20;9.00;;;;;;;-147.86;100.00;48910.90;105870;1256;60362;-45
2023/11/22 00:53:57;;;;;;;13.40;8.80;;;;;;;-147.86;100.00;48911.29;105858;1252;60424;-46
2023/11/22 00:56:24;;;;;;;15.70;9.00;;;;;;;-147.86;100.00;48884.63;105694;1253;73781;-47
2023/11/22 00:58:53;;;;;;;11.60;8.40;;;;;;;-147.86;100.00;48894.43;105885;1252;64505;-47
2023/11/22 01:01:20;;;;;;;12.30;7.90;;;;;;;-147.86;100.00;48877.57;105865;1253;70218;-43
2023/11/22 01:03:47;;;;;;;12.20;8.00;;;;;;;-147.86;100.00;48868.55;105872;1253;60866;-43
2023/11/22 01:06:14;;;;;;;13.80;8.40;;;;;;;-147.86;100.00;48855.61;105856;1253;60467;-48
2023/11/22 01:08:41;;;;;;;13.90;7.80;;;;;;;-147.86;100.00;48850.12;105869;1256;73681;-47
2023/11/22 01:11:09;;;;;;;13.20;8.20;;;;;;;-147.86;100.00;48820.71;105863;1257;63948;-44
2023/11/22 01:13:40;;;;;;;13.10;8.00;;;;;;;-147.86;100.00;48804.64;105847;1253;72557;-48
2023/11/22 01:16:09;;;;;;;12.10;6.80;;;;;;;-147.86;100.00;48787.38;105846;1254;61077;-45
2023/11/22 01:18:36;;;;;;;11.20;7.60;;;;;;;-147.86;100.00;48768.95;105865;1254;60478;-47
2023/11/22 01:21:05;;;;;;;11.70;7.70;;;;;;;-147.86;100.00;48777.57;105875;1256;71986;-46
2023/11/22 01:23:32;;;;;;;12.10;8.00;;;;;;;-147.86;100.00;48766.21;105879;1253;65331;-45
2023/11/22 01:25:59;;;;;;;14.40;7.50;;;;;;;-147.86;100.00;48767.77;105867;1253;72643;-45
2023/11/22 01:28:27;;;;;;;11.20;7.10;;;;;;;-147.86;100.00;48744.25;105835;1257;60371;-46
2023/11/22 01:30:54;;;;;;;11.70;7.30;;;;;;;-147.86;100.00;48736.79;105913;1253;60445;-48
2023/11/22 01:33:22;;;;;;;11.60;7.20;;;;;;;-147.86;100.00;48714.45;105887;1252;72456;-45
2023/11/22 01:35:49;;;;;;;11.00;7.20;;;;;;;-147.86;100.00;48706.60;105726;1254;64487;-43
2023/11/22 01:38:17;;;;;;;9.50;6.70;;;;;;;-147.86;100.00;48700.33;105894;1257;72658;-42
2023/11/22 01:40:46;;;;;;;12.30;7.00;;;;;;;-147.86;100.00;48673.66;105881;1256;60416;-46
2023/11/22 01:43:16;;;;;;;8.90;6.80;;;;;;;-147.86;100.00;48663.86;105827;1253;60438;-48
2023/11/22 01:45:44;;;;;;;10.70;6.30;;;;;;;-147.86;100.00;48664.65;105858;1253;73638;-43
2023/11/22 01:48:11;;;;;;;12.90;7.30;;;;;;;-147.86;100.00;48641.91;105928;1252;65908;-50
2023/11/22 01:50:40;;;;;;;11.00;6.90;;;;;;;-147.86;100.00;48650.92;105583;1253;71028;-45
2023/11/22 01:53:11;;;;;;;14.40;7.20;;;;;;;-147.86;100.00;48611.32;105599;1256;60452;-42
2023/11/22 01:55:39;;;;;;;14.00;7.40;;;;;;;-147.86;100.00;48620.34;105630;1257;60364;-41
2023/11/22 01:58:06;;;;;;;11.40;7.90;;;;;;;-147.86;100.00;48606.61;105810;1256;72692;-46
2023/11/22 02:00:45;;;;;;;14.10;8.10;;;;;;;-147.86;100.00;48616.41;105705;1258;65328;-44
2023/11/22 02:03:12;;;;;;;16.50;10.00;;;;;;;-147.86;100.00;48596.81;105752;1256;72607;-48
2023/11/22 02:05:42;;;;;;;21.70;10.90;;;;;;;-147.86;100.00;48589.75;105691;1253;61099;-45
2023/11/22 02:08:10;;;;;;;22.60;10.80;;;;;;;-147.86;100.00;48593.28;105879;1257;60420;-45
2023/11/22 02:10:37;;;;;;;16.50;10.10;;;;;;;-147.86;100.00;48585.83;105903;1252;73708;-44
2023/11/22 02:13:07;;;;;;;18.70;10.50;;;;;;;-147.86;100.00;48579.55;105905;1257;65431;-47
2023/11/22 02:15:35;;;;;;;17.90;10.20;;;;;;;-147.86;100.00;48568.57;105891;1253;73298;-45
2023/11/22 02:18:03;;;;;;;21.00;11.40;;;;;;;-147.86;100.00;48580.73;105846;1257;60512;-43
2023/11/22 02:20:39;;;;;;;25.10;11.50;;;;;;;-147.86;100.00;48575.63;105855;1253;60442;-50
2023/11/22 02:23:09;;;;;;;24.70;11.20;;;;;;;-147.86;100.00;48554.46;105739;1253;73809;-47
2023/11/22 02:25:37;;;;;;;18.90;9.80;;;;;;;-147.86;100.00;48561.52;105867;1256;65657;-44
2023/11/22 02:28:04;;;;;;;18.20;9.40;;;;;;;-147.86;100.00;48558.77;105920;1253;72662;-47
2023/11/22 02:30:31;;;;;;;16.10;9.30;;;;;;;-147.86;100.00;48559.95;105865;1257;60426;-47
2023/11/22 02:32:58;;;;;;;22.70;9.90;;;;;;;-147.86;100.00;48535.64;105840;1253;60445;-46
2023/11/22 02:35:26;;;;;;;18.90;9.80;;;;;;;-147.86;100.00;48537.99;105865;1253;73124;-46
2023/11/22 02:37:53;;;;;;;16.60;9.10;;;;;;;-147.86;100.00;48533.29;105927;1257;65467;-43
2023/11/22 02:40:21;;;;;;;19.00;9.50;;;;;;;-147.86;100.00;48518.00;105877;1253;72612;-47
2023/11/22 02:42:49;;;;;;;18.40;9.40;;;;;;;-147.86;100.00;48526.62;105905;1257;60836;-46
2023/11/22 02:45:22;;;;;;;15.90;8.20;;;;;;;-147.86;100.00;48530.15;105879;1253;60397;-46
2023/11/22 02:47:49;;;;;;;15.30;8.80;;;;;;;-147.86;100.00;48526.23;105895;1252;73895;-45
2023/11/22 02:50:16;;;;;;;14.90;8.20;;;;;;;-147.86;100.00;48534.86;105891;1257;65562;-44
2023/11/22 02:52:43;;;;;;;16.00;8.00;;;;;;;-147.86;100.00;48520.74;105847;1253;72638;-45
2023/11/22 02:55:10;;;;;;;19.00;8.60;;;;;;;-147.86;100.00;48516.43;105853;1257;60429;-47
2023/11/22 02:57:39;;;;;;;20.80;8.40;;;;;;;-147.86;100.00;48529.76;105913;1253;60566;-44
2023/11/22 03:00:08;;;;;;;15.90;8.30;;;;;;;-147.86;100.00;48520.74;105898;1253;72595;-42
2023/11/22 03:02:35;;;;;;;14.30;8.70;;;;;;;-147.86;100.00;48539.56;105685;1253;64485;-44
2023/11/22 03:05:02;;;;;;;15.00;8.40;;;;;;;-147.86;100.00;48524.27;105857;1253;72692;-49
2023/11/22 03:07:30;;;;;;;13.00;8.40;;;;;;;-147.86;100.00;48515.25;105807;1257;60358;-47
2023/11/22 03:10:00;;;;;;;15.60;9.20;;;;;;;-147.86;100.00;48518.78;105878;1253;60524;-49
2023/11/22 03:12:27;;;;;;;12.60;8.60;;;;;;;-147.86;100.00;48532.90;105852;1257;73894;-46
2023/11/22 03:14:58;;;;;;;19.70;9.60;;;;;;;-147.86;100.00;48532.50;105866;1252;65438;-44
2023/11/22 03:17:28;;;;;;;15.40;9.70;;;;;;;-147.86;100.00;48528.19;105890;1253;72618;-48
2023/11/22 03:19:58;;;;;;;17.10;9.10;;;;;;;-147.86;100.00;48541.91;105725;1253;60530;-49
2023/11/22 03:22:29;;;;;;;18.30;9.20;;;;;;;-147.86;100.00;48544.66;105909;1253;60439;-45
2023/11/22 03:24:58;;;;;;;13.10;8.90;;;;;;;-147.86;100.00;48558.38;105870;1252;73875;-44
2023/11/22 03:27:26;;;;;;;18.20;9.80;;;;;;;-147.86;100.00;48552.89;105925;1254;64073;-47
2023/11/22 03:29:53;;;;;;;15.20;9.60;;;;;;;-147.86;100.00;48565.83;105880;1253;72585;-43
2023/11/22 03:32:22;;;;;;;16.40;9.20;;;;;;;-147.86;100.00;48563.48;105839;1253;60463;-47
2023/11/22 03:34:49;;;;;;;16.50;9.30;;;;;;;-147.86;100.00;48579.16;105864;1253;60412;-44
2023/11/22 03:37:17;;;;;;;14.90;8.60;;;;;;;-147.86;100.00;48579.16;105861;1253;73692;-45
2023/11/22 03:39:48;;;;;;;17.30;9.50;;;;;;;-147.86;100.00;48583.48;105922;1258;65576;-46
2023/11/22 03:42:18;;;;;;;19.20;9.80;;;;;;;-147.86;100.00;48605.44;105856;1257;72675;-43
2023/11/22 03:44:45;;;;;;;23.20;10.50;;;;;;;-147.86;100.00;48611.32;105870;1252;61008;-48
2023/11/22 03:47:15;;;;;;;15.60;9.80;;;;;;;-147.86;100.00;48625.43;105869;1253;60580;-43
2023/11/22 03:49:43;;;;;;;18.10;9.60;;;;;;;-147.86;100.00;48637.20;105890;1257;73679;-42
2023/11/22 03:52:10;;;;;;;16.80;9.50;;;;;;;-147.86;100.00;48636.80;105874;1257;65579;-42
2023/11/22 03:54:39;;;;;;;19.30;9.50;;;;;;;-147.86;100.00;48628.96;105858;1257;72612;-46
2023/11/22 03:57:05;;;;;;;15.70;8.60;;;;;;;-147.86;100.00;48681.90;105869;1254;60457;-45
2023/11/22 03:59:34;;;;;;;19.20;9.70;;;;;;;-147.86;100.00;48668.18;105889;1253;60422;-45
2023/11/22 04:02:01;;;;;;;19.50;10.00;;;;;;;-147.86;100.00;48690.92;105865;1258;73596;-46
2023/11/22 04:04:30;;;;;;;24.60;10.50;;;;;;;-147.86;100.00;48697.59;105829;1257;65362;-44
2023/11/22 04:06:57;;;;;;;24.80;11.00;;;;;;;-147.86;100.00;48701.89;105876;1257;71213;-45
2023/11/22 04:09:25;;;;;;;31.80;11.50;;;;;;;-147.86;100.00;48708.57;105862;1257;60365;-42
2023/11/22 04:11:51;;;;;;;26.40;11.30;;;;;;;-147.86;100.00;48749.73;105852;1253;60412;-46
2023/11/22 04:14:20;;;;;;;26.80;11.60;;;;;;;-147.86;100.00;48749.34;105917;1253;72564;-44
2023/11/22 04:16:47;;;;;;;23.90;11.30;;;;;;;-147.86;100.00;48773.26;105866;1257;65522;-45
2023/11/22 04:19:14;;;;;;;31.80;12.60;;;;;;;-147.86;100.00;48772.48;105904;1253;72650;-48
2023/11/22 04:21:42;;;;;;;27.70;12.00;;;;;;;-147.86;100.00;48789.34;105867;1257;61228;-43
2023/11/22 04:24:09;;;;;;;22.90;10.60;;;;;;;-147.86;100.00;48806.20;105889;1253;60434;-46
2023/11/22 04:26:37;;;;;;;19.20;10.10;;;;;;;-147.86;100.00;48827.38;105845;1253;73792;-43
2023/11/22 04:29:04;;;;;;;24.00;10.50;;;;;;;-147.86;100.00;48821.89;105839;1257;65406;-49
2023/11/22 04:31:31;;;;;;;27.60;9.70;;;;;;;-147.86;100.00;48840.71;105908;1253;72700;-47
2023/11/22 04:34:00;;;;;;;22.40;10.40;;;;;;;-147.86;100.00;48855.21;105862;1257;61035;-47
2023/11/22 04:36:27;;;;;;;17.80;9.10;;;;;;;-147.86;100.00;48870.91;105969;1253;60444;-44
2023/11/22 04:38:53;;;;;;;20.00;9.20;;;;;;;-147.86;100.00;48877.57;105811;1253;73681;-45
2023/11/22 04:41:20;;;;;;;16.80;8.60;;;;;;;-147.86;100.00;48872.08;105882;1257;65335;-48
2023/11/22 04:43:48;;;;;;;24.50;8.50;;;;;;;-147.86;100.00;48899.14;105839;1253;71563;-44
2023/11/22 04:46:14;;;;;;;15.10;8.70;;;;;;;-147.86;100.00;48896.39;105853;1257;60331;-45
2023/11/22 04:48:44;;;;;;;30.30;9.60;;;;;;;-147.86;100.00;48924.23;105853;1253;60412;-43
2023/11/22 04:51:11;;;;;;;17.80;8.90;;;;;;;-147.86;100.00;48925.80;105872;1253;73831;-46
2023/11/22 04:53:38;;;;;;;19.10;8.60;;;;;;;-147.86;100.00;48942.67;105870;1257;65476;-45
2023/11/22 04:56:06;;;;;;;17.20;9.60;;;;;;;-147.86;100.00;48974.82;105871;1252;72615;-45
2023/11/22 04:58:33;;;;;;;15.90;8.50;;;;;;;-147.86;100.00;48970.51;105890;1257;60547;-44
2023/11/22 05:01:01;;;;;;;17.30;9.60;;;;;;;-147.86;100.00;48991.68;105844;1253;60396;-46
2023/11/22 05:03:28;;;;;;;21.60;10.10;;;;;;;-147.86;100.00;49005.02;105868;1256;73800;-46
2023/11/22 05:05:55;;;;;;;19.80;9.70;;;;;;;-147.86;100.00;49023.84;105831;1258;65444;-43
2023/11/22 05:08:22;;;;;;;15.60;9.20;;;;;;;-147.86;100.00;49025.02;105890;1257;72499;-44
2023/11/22 05:10:49;;;;;;;17.60;8.90;;;;;;;-147.86;100.00;49041.49;105880;1257;60435;-45
2023/11/22 05:13:16;;;;;;;15.10;9.40;;;;;;;-147.86;100.00;49048.55;105835;1252;60422;-50
2023/11/22 05:15:43;;;;;;;18.30;9.70;;;;;;;-147.86;100.00;49062.66;105860;1253;73901;-42
2023/11/22 05:18:10;;;;;;;17.50;10.90;;;;;;;-147.86;100.00;49067.37;105844;1256;65494;-45
2023/11/22 05:20:37;;;;;;;18.20;10.70;;;;;;;-147.86;100.00;49084.63;105842;1253;72659;-48
2023/11/22 05:23:04;;;;;;;16.30;9.70;;;;;;;-147.86;100.00;49091.69;105850;1258;60436;-46
2023/11/22 05:25:31;;;;;;;19.50;9.00;;;;;;;-147.86;100.00;49103.45;105686;1253;361066;-44
2023/11/22 05:27:59;;;;;;;19.10;9.10;;;;;;;-147.86;100.00;49094.43;105860;1253;73920;-45
2023/11/22 05:31:37;;;;;;;;;;;;;;;-147.86;100.00;49024.24;104078;1276;615807;-45
2023/11/22 05:34:05;;;;;;;17.20;9.10;;;;;;;-147.86;100.00;49139.14;105190;1267;60928;-47
2023/11/22 05:36:32;;;;;;;19.10;9.30;;;;;;;-147.86;100.00;49158.74;105214;1263;60309;-48
2023/11/22 05:38:59;;;;;;;14.80;7.90;;;;;;;-147.86;100.00;49179.53;105199;1267;70085;-46
2023/11/22 05:41:26;;;;;;;17.30;9.10;;;;;;;-147.86;100.00;49177.96;105179;1267;65588;-44
2023/11/22 05:43:53;;;;;;;16.00;8.80;;;;;;;-147.86;100.00;49179.53;105012;1267;243913;-44
2023/11/22 05:46:21;;;;;;;15.00;9.40;;;;;;;-147.86;100.00;49181.10;105275;1267;61225;-48
2023/11/22 05:48:49;;;;;;;16.60;9.50;;;;;;;-147.86;100.00;49190.12;105223;1266;59192;-47
2023/11/22 05:51:16;;;;;;;18.40;9.20;;;;;;;-147.86;100.00;49190.90;105267;1262;72033;-45
2023/11/22 05:53:44;;;;;;;20.30;10.30;;;;;;;-147.86;100.00;49179.14;105274;1266;65926;-47
2023/11/22 05:56:11;;;;;;;17.40;8.80;;;;;;;-147.86;100.00;49193.65;105220;1266;73166;-45
2023/11/22 05:58:38;;;;;;;19.10;9.80;;;;;;;-147.86;100.00;49210.90;105217;1265;59611;-43
2023/11/22 06:01:05;;;;;;;25.70;10.30;;;;;;;-147.86;100.00;49177.96;105264;1261;60289;-48
2023/11/22 06:03:33;;;;;;;19.10;10.50;;;;;;;-147.86;100.00;49210.51;105195;1266;72879;-43
2023/11/22 06:06:00;;;;;;;23.60;10.30;;;;;;;-147.86;100.00;49183.45;105269;1266;64494;-47
2023/11/22 06:08:27;;;;;;;28.20;12.20;;;;;;;-147.86;100.00;49168.16;105265;1261;73066;-44
2023/11/22 06:10:57;;;;;;;20.20;10.30;;;;;;;-147.86;100.00;49176.79;105224;1266;59727;-44
2023/11/22 06:13:24;;;;;;;24.90;12.80;;;;;;;-147.86;100.00;49184.63;105265;1263;60396;-47
2023/11/22 06:15:50;;;;;;;20.70;11.50;;;;;;;-147.86;100.00;49188.55;105189;1265;73013;-47
2023/11/22 06:18:18;;;;;;;23.00;11.50;;;;;;;-147.86;100.00;49175.61;105169;1266;65387;-49
2023/11/22 06:20:47;;;;;;;21.40;10.90;;;;;;;-147.86;100.00;49183.06;105210;1263;72606;-46
2023/11/22 06:23:14;;;;;;;24.60;11.70;;;;;;;-147.86;100.00;49163.06;105374;1263;59692;-44
2023/11/22 06:25:41;;;;;;;21.30;11.30;;;;;;;-147.86;100.00;49164.63;105346;1260;60082;-47
2023/11/22 06:28:08;;;;;;;25.90;10.50;;;;;;;-147.86;100.00;49171.68;105376;1263;72002;-44
2023/11/22 06:30:35;;;;;;;18.30;11.10;;;;;;;-147.86;100.00;49164.63;105365;1259;63406;-48
2023/11/22 06:33:03;;;;;;;19.10;10.20;;;;;;;-147.86;100.00;49166.59;105445;1260;72648;-44
2023/11/22 06:35:30;;;;;;;17.50;10.10;;;;;;;-147.86;100.00;49158.35;105357;1263;61174;-46
2023/11/22 06:37:56;;;;;;;20.40;9.70;;;;;;;-147.86;100.00;49135.61;105333;1259;61198;-46
2023/11/22 06:40:24;;;;;;;18.30;9.30;;;;;;;-147.86;100.00;49160.70;105330;1264;73043;-46
2023/11/22 06:42:51;;;;;;;17.40;10.00;;;;;;;-147.86;100.00;49139.92;105275;1264;65450;-45
2023/11/22 06:45:19;;;;;;;19.80;10.10;;;;;;;-147.86;100.00;49139.14;105311;1259;71384;-43
2023/11/22 06:47:46;;;;;;;18.10;10.80;;;;;;;-147.86;100.00;49128.94;105294;1259;61052;-44
2023/11/22 06:50:13;;;;;;;18.80;10.30;;;;;;;-147.86;100.00;49127.76;105221;1259;60317;-45
2023/11/22 06:52:41;;;;;;;19.20;9.60;;;;;;;-147.86;100.00;49124.23;105316;1260;72026;-41
2023/11/22 06:55:09;;;;;;;21.20;10.30;;;;;;;-147.86;100.00;49128.94;105285;1260;64648;-42
2023/11/22 06:57:36;;;;;;;26.60;10.80;;;;;;;-147.86;100.00;49131.69;105276;1260;72502;-42
2023/11/22 07:00:04;;;;;;;24.50;11.60;;;;;;;-147.86;100.00;49098.74;105239;1263;61179;-40
2023/11/22 07:02:33;;;;;;;22.50;10.90;;;;;;;-147.86;100.00;49140.71;105284;1260;60190;-42
2023/11/22 07:05:06;;;;;;;26.50;12.70;;;;;;;-147.86;100.00;49136.79;105251;1260;73003;-43
2023/11/22 07:07:34;;;;;;;34.00;17.00;;;;;;;-147.86;100.00;49121.10;105289;1263;65454;-46
2023/11/22 07:10:02;;;;;;;30.00;14.60;;;;;;;-147.86;100.00;49117.57;105274;1259;71600;-44
2023/11/22 07:12:29;;;;;;;28.50;13.40;;;;;;;-147.86;100.00;49083.45;105305;1259;59646;-45
2023/11/22 07:14:55;;;;;;;25.40;12.90;;;;;;;-147.86;100.00;49096.00;105236;1260;60172;-42
2023/11/22 07:17:22;;;;;;;39.40;13.90;;;;;;;-147.86;100.00;49088.55;105284;1263;73132;-45
2023/11/22 07:19:51;;;;;;;29.20;12.60;;;;;;;-147.86;100.00;49068.95;105298;1263;65349;-43
2023/11/22 07:22:19;;;;;;;31.40;11.70;;;;;;;-147.86;100.00;49082.27;105242;1260;72631;-43
2023/11/22 07:24:54;;;;;;;31.20;12.90;;;;;;;-147.86;100.00;49083.84;105272;1263;59666;-43
2023/11/22 07:27:22;;;;;;;27.20;11.50;;;;;;;-147.86;100.00;49059.53;105276;1260;60058;-46
2023/11/22 07:29:52;;;;;;;27.30;11.80;;;;;;;-147.86;100.00;49079.53;105313;1260;73053;-44
2023/11/22 07:32:20;;;;;;;25.00;10.50;;;;;;;-147.86;100.00;49074.43;105260;1263;65542;-47
2023/11/22 07:34:47;;;;;;;29.60;10.30;;;;;;;-147.86;100.00;49056.00;105280;1260;72722;-43
2023/11/22 07:37:15;;;;;;;24.50;10.80;;;;;;;-147.86;100.00;49062.27;105313;1263;61080;-43
2023/11/22 07:39:43;;;;;;;21.20;10.80;;;;;;;-147.86;100.00;49036.39;105286;1260;60151;-42
2023/11/22 07:42:10;;;;;;;21.20;10.50;;;;;;;-147.86;100.00;49035.61;105270;1260;72893;-44
2023/11/22 07:44:37;;;;;;;20.10;10.70;;;;;;;-147.86;100.00;49040.31;105308;1264;65334;-42
2023/11/22 07:47:09;;;;;;;24.80;11.40;;;;;;;-147.86;100.00;49024.23;105249;1260;71540;-42
2023/11/22 07:49:41;;;;;;;28.70;12.20;;;;;;;-147.86;100.00;49007.77;105307;1263;61160;-44
2023/11/22 07:52:13;;;;;;;21.70;10.80;;;;;;;-147.86;100.00;48986.59;105325;1259;60272;-46
2023/11/22 07:54:41;;;;;;;22.90;10.50;;;;;;;-147.86;100.00;48980.31;105275;1260;73026;-45
2023/11/22 07:57:08;;;;;;;28.60;10.70;;;;;;;-147.86;100.00;48963.06;105267;1263;65433;-46
2023/11/22 07:59:35;;;;;;;31.90;16.00;;;;;;;-147.86;100.00;48961.10;105261;1260;72571;-46
2023/11/22 08:02:02;;;;;;;34.80;15.60;;;;;;;-147.86;100.00;48969.34;105223;1259;60958;-49
2023/11/22 08:04:32;;;;;;;42.60;15.90;;;;;;;-147.86;100.00;48945.80;105214;1260;60276;-49
2023/11/22 08:06:59;;;;;;;39.40;16.10;;;;;;;-147.86;100.00;48939.93;105206;1260;72818;-44
2023/11/22 08:09:26;;;;;;;32.70;15.00;;;;;;;-147.86;100.00;48939.93;105076;1263;65442;-48
2023/11/22 08:11:53;;;;;;;34.50;16.20;;;;;;;-147.86;100.00;48929.73;105138;1259;72632;-44
2023/11/22 08:14:20;;;;;;;36.80;16.80;;;;;;;-147.86;100.00;48899.93;105088;1263;59918;-49
2023/11/22 08:16:48;;;;;;;38.20;16.60;;;;;;;-147.86;100.00;48916.00;105122;1259;60043;-45
2023/11/22 08:19:16;;;;;;;36.90;16.10;;;;;;;-147.86;100.00;48945.80;105089;1260;71760;-44
2023/11/22 08:21:42;;;;;;;32.40;15.60;;;;;;;-147.86;100.00;48929.73;105101;1263;65349;-48
2023/11/22 08:24:11;;;;;;;45.50;16.20;;;;;;;-147.86;100.00;48908.55;105167;1264;72662;-48
2023/11/22 08:26:40;;;;;;;34.50;16.80;;;;;;;-147.86;100.00;48934.82;105120;1263;59545;-48
2023/11/22 08:29:07;;;;;;;33.10;16.10;;;;;;;-147.86;100.00;48931.29;105145;1260;60149;-45
2023/11/22 08:31:36;;;;;;;33.90;15.40;;;;;;;-147.86;100.00;48915.22;105205;1259;72991;-47
2023/11/22 08:34:07;;;;;;;37.10;15.10;;;;;;;-147.86;100.00;48941.49;105314;1260;65453;-47
2023/11/22 08:36:34;;;;;;;30.80;15.30;;;;;;;-147.86;100.00;48928.16;105282;1259;72314;-44
2023/11/22 08:39:01;;;;;;;30.60;14.40;;;;;;;-147.86;100.00;48970.51;105259;1263;59673;-47
2023/11/22 08:41:29;;;;;;;34.30;14.90;;;;;;;-147.86;100.00;48956.79;105269;1260;60145;-50
2023/11/22 08:43:56;;;;;;;32.60;15.80;;;;;;;-147.86;100.00;48966.20;105285;1260;73055;-46
2023/11/22 08:46:23;;;;;;;28.60;14.70;;;;;;;-147.86;100.00;48969.34;105266;1263;65381;-43
2023/11/22 08:48:53;;;;;;;33.20;15.90;;;;;;;-147.86;100.00;48979.14;105282;1260;72634;-49
2023/11/22 08:51:19;;;;;;;28.20;15.10;;;;;;;-147.86;100.00;48989.34;105238;1264;61093;-44
2023/11/22 08:53:46;;;;;;;31.10;16.40;;;;;;;-147.86;100.00;48952.87;105932;1253;60245;-42
2023/11/22 08:56:15;;;;;;;28.90;15.70;;;;;;;-147.86;100.00;48962.27;105942;1251;73184;-42
2023/11/22 08:58:43;;;;;;;30.10;16.50;;;;;;;-147.86;100.00;48942.67;105948;1256;65559;-46
2023/11/22 09:01:10;;;;;;;32.70;15.90;;;;;;;-147.86;100.00;48916.40;105923;1251;73143;-48
2023/11/22 09:03:38;;;;;;;33.60;16.60;;;;;;;-147.86;100.00;48910.12;105871;1256;61574;-46
2023/11/22 09:06:07;;;;;;;29.40;17.10;;;;;;;-147.86;100.00;48908.16;105930;1251;60233;-43
2023/11/22 09:08:35;;;;;;;32.40;17.20;;;;;;;-147.86;100.00;48908.16;105914;1253;73045;-46
2023/11/22 09:11:06;;;;;;;31.80;16.70;;;;;;;-147.86;100.00;48890.51;106027;1256;65507;-45
2023/11/22 09:13:34;;;;;;;32.70;17.00;;;;;;;-147.86;100.00;48879.93;105955;1251;72723;-48
2023/11/22 09:16:04;;;;;;;31.70;17.30;;;;;;;-147.86;100.00;48874.04;105937;1255;60961;-48
2023/11/22 09:18:31;;;;;;;36.60;18.50;;;;;;;-147.86;100.00;48861.49;105979;1251;60152;-43
2023/11/22 09:20:58;;;;;;;35.90;18.20;;;;;;;-147.86;100.00;48872.47;105900;1251;72983;-47
2023/11/22 09:23:27;;;;;;;35.90;17.90;;;;;;;-147.86;100.00;48879.53;106007;1256;65412;-46
2023/11/22 09:25:54;;;;;;;38.90;20.80;;;;;;;-147.86;100.00;48883.85;105957;1256;72220;-46
2023/11/22 09:28:21;;;;;;;48.00;24.00;;;;;;;-147.86;100.00;48898.74;105960;1256;59717;-44
2023/11/22 09:30:49;;;;;;;49.40;23.10;;;;;;;-147.86;100.00;48898.75;105939;1251;60371;-45
2023/11/22 09:33:16;;;;;;;47.10;23.30;;;;;;;-147.86;100.00;48884.24;105946;1256;71961;-46
2023/11/22 09:35:45;;;;;;;55.10;24.30;;;;;;;-147.86;100.00;48892.08;105933;1256;65545;-45
2023/11/22 09:38:13;;;;;;;58.20;25.40;;;;;;;-147.86;100.00;48872.87;106035;1253;71429;-45
2023/11/22 09:40:41;;;;;;;62.20;27.00;;;;;;;-147.86;100.00;48870.91;105922;1255;60527;-44
2023/11/22 09:43:08;;;;;;;56.90;26.30;;;;;;;-147.86;100.00;48890.91;105938;1255;60419;-45
2023/11/22 09:45:37;;;;;;;51.30;25.00;;;;;;;-147.86;100.00;48901.49;105919;1252;74603;-42
2023/11/22 09:48:17;;;;;;;57.90;27.60;;;;;;;-147.86;100.00;48921.49;105869;1257;65307;-45
2023/11/22 09:51:21;;;;;;;49.90;25.20;;;;;;;-147.86;100.00;48940.71;105954;1253;72702;-45
2023/11/22 09:53:54;;;;;;;63.00;25.50;;;;;;;-147.86;100.00;48965.80;105937;1253;60537;-41
2023/11/22 09:56:21;;;;;;;58.90;26.60;;;;;;;-147.86;100.00;48946.59;105949;1253;60476;-45
2023/11/22 09:58:49;;;;;;;54.10;26.00;;;;;;;-147.86;100.00;48958.74;105951;1252;73856;-46
2023/11/22 10:01:16;;;;;;;58.70;25.50;;;;;;;-147.86;100.00;48945.41;105894;1256;65330;-45
2023/11/22 10:03:43;;;;;;;53.60;26.10;;;;;;;-147.86;100.00;48945.80;105962;1251;72627;-46
2023/11/22 10:06:10;;;;;;;55.80;26.10;;;;;;;-147.86;100.00;48936.00;105906;1255;61103;-46
2023/11/22 10:08:38;;;;;;;57.40;28.60;;;;;;;-147.86;100.00;48920.71;105938;1253;60530;-43
2023/11/22 10:11:05;;;;;;;52.80;25.80;;;;;;;-147.86;100.00;48916.79;105967;1255;73781;-47
2023/11/22 10:13:32;;;;;;;58.10;26.20;;;;;;;-147.86;100.00;48908.55;105887;1252;65024;-43
2023/11/22 10:16:10;;;;;;;51.20;25.80;;;;;;;-147.86;100.00;48908.94;105937;1251;72186;-47
2023/11/22 10:18:46;;;;;;;48.20;26.60;;;;;;;-147.86;100.00;48910.51;105914;1252;60467;-40
2023/11/22 10:21:23;;;;;;;38.20;18.40;;;;;;;-147.86;100.00;48934.43;105968;1256;60349;-44
2023/11/22 10:23:53;;;;;;;47.20;24.80;;;;;;;-147.86;100.00;48916.39;105947;1253;73640;-44
2023/11/22 10:26:20;;;;;;;46.20;24.00;;;;;;;-147.86;100.00;48923.45;105932;1256;65776;-43
2023/11/22 10:28:47;;;;;;;52.40;26.10;;;;;;;-147.86;100.00;48922.27;105915;1253;72670;-46
2023/11/22 10:31:14;;;;;;;50.00;25.10;;;;;;;-147.86;100.00;48919.14;105683;1257;61049;-44
2023/11/22 10:33:44;;;;;;;47.90;23.40;;;;;;;-147.86;100.00;48902.27;105916;1253;60530;-44
2023/11/22 10:36:12;;;;;;;44.70;22.60;;;;;;;-147.86;100.00;48903.85;105947;1255;74585;-43
2023/11/22 10:38:39;;;;;;;46.90;22.20;;;;;;;-147.86;100.00;48902.28;105958;1252;65508;-45
2023/11/22 10:41:07;;;;;;;41.40;22.00;;;;;;;-147.86;100.00;48900.71;105865;1251;72759;-43
2023/11/22 10:43:35;;;;;;;40.70;21.50;;;;;;;-147.86;100.00;48909.34;105938;1256;60396;-42
2023/11/22 10:46:04;;;;;;;39.20;21.60;;;;;;;-147.86;100.00;48914.43;105918;1251;60432;-46
2023/11/22 10:48:33;;;;;;;36.60;20.00;;;;;;;-147.86;100.00;48917.57;105956;1251;72426;-44
2023/11/22 10:51:03;;;;;;;35.90;17.80;;;;;;;-147.86;100.00;48918.36;105895;1251;65172;-43
2023/11/22 10:53:34;;;;;;;33.60;18.40;;;;;;;-147.86;100.00;48922.67;105938;1253;72446;-43
2023/11/22 10:56:07;;;;;;;46.70;23.50;;;;;;;-147.86;100.00;48892.86;105940;1253;60424;-42